Flight Track Log - Related Links

Times and Time Zones

All times are in EST time to prevent confusion due to time zone crossing. See the AAY894 flight status page for this flight to view local times or setup timezone preferences in your user account.

Time Position Orientation Groundspeed Altitude Reporting Facility
EST Latitude Longitude Course Direction KTS MPH feet Rate Location/Type
Tue 06:55:26 AM 27.9167 -82.6833 319° Northwest 133 153 600  Level Tampa TRACON
Tue 06:55:44 AM 27.9333 -82.7000 319° Northwest 158 182 1,300 1,538 Climbing Tampa TRACON
Tue 06:56:44 AM 27.9833 -82.6667 30° Northeast 224 258 2,600 2,338 Climbing Tampa TRACON
Tue 06:58:18 AM 28.1039 -82.6597 North 281 323 7,300 2,434 Climbing Jacksonville Center
Tue 07:03:43 AM 28.6336 -82.5860 North 391 450 19,600 2,079 Climbing FlightAware ADS-B
Tue 07:06:43 AM 28.9751 -82.5981 358° North 429 494 24,800 1,651 Climbing FlightAware ADS-B
Tue 07:07:21 AM 29.0520 -82.6001 359° North 438 504 25,600 1,250 Climbing FlightAware ADS-B
Tue 07:07:55 AM 29.1211 -82.6007 360° North 447 514 26,300 1,459 Climbing FlightAware ADS-B
Tue 07:08:35 AM 29.2027 -82.6017 359° North 446 513 27,400 1,426 Climbing FlightAware ADS-B
Tue 07:09:36 AM 29.3308 -82.6033 359° North 456 525 28,700 1,226 Climbing FlightAware ADS-B
Tue 07:10:08 AM 29.4005 -82.6009 North 464 534 29,300 1,164 Climbing FlightAware ADS-B
Tue 07:10:43 AM 29.4753 -82.5970 North 466 536 30,000 1,091 Climbing FlightAware ADS-B
Tue 07:11:14 AM 29.5426 -82.5942 North 470 541 30,500 1,279 Climbing FlightAware ADS-B
Tue 07:11:44 AM 29.6077 -82.5914 North 465 535 31,300 1,574 Climbing FlightAware ADS-B
Tue 07:12:15 AM 29.6735 -82.5886 North 462 532 32,100 1,475 Climbing FlightAware ADS-B
Tue 07:12:45 AM 29.7383 -82.5859 North 459 528 32,800 1,130 Climbing FlightAware ADS-B
Tue 07:13:24 AM 29.8214 -82.5825 North 462 532 33,400 1,114 Climbing FlightAware ADS-B
Tue 07:13:55 AM 29.8876 -82.5797 North 458 527 34,100 1,268 Climbing FlightAware ADS-B
Tue 07:14:35 AM 29.9703 -82.5760 North 457 526 34,900 771 Climbing FlightAware ADS-B
Tue 07:15:05 AM 30.0360 -82.5732 North 455 524 35,000 100 Climbing FlightAware ADS-B
Tue 07:15:35 AM 30.0998 -82.5684 North 459 528 35,000  Level FlightAware ADS-B
Tue 07:16:15 AM 30.1842 -82.5567 North 462 532 35,000  Level FlightAware ADS-B
Tue 07:16:45 AM 30.2483 -82.5482 North 461 531 35,000  Level FlightAware ADS-B
Tue 07:17:16 AM 30.3137 -82.5400 North 461 531 35,000  Level FlightAware ADS-B
Tue 07:18:06 AM 30.4206 -82.5268 North 461 531 35,000  Level FlightAware ADS-B
Tue 07:18:37 AM 30.4858 -82.5186 North 459 528 35,000  Level FlightAware ADS-B
Tue 07:19:18 AM 30.5712 -82.5082 North 461 531 35,000  Level FlightAware ADS-B
Tue 07:20:08 AM 30.6777 -82.4950 North 462 532 35,000  Level FlightAware ADS-B
Tue 07:21:28 AM 30.8489 -82.4739 North 461 531 35,000  Level FlightAware ADS-B
Tue 07:22:01 AM 30.9197 -82.4650 North 463 533 35,000 218 Level FlightAware ADS-B
Tue 07:23:18 AM 31.0758 -82.4464 North 462 532 35,400 741 Climbing Jacksonville Center
Tue 07:24:51 AM 31.2561 -82.4236 North 462 532 37,100 1,137 Climbing Atlanta Center
Tue 07:25:51 AM 31.3789 -82.4069 North 456 525 38,300 750 Climbing Atlanta Center
Tue 07:26:51 AM 31.4997 -82.3925 North 444 511 38,600 300 Climbing Atlanta Center
Tue 07:27:51 AM 31.6228 -82.3781 North 439 505 38,900 200 Climbing Atlanta Center
Tue 07:28:51 AM 31.7478 -82.3611 North 444 511 39,000 50 Climbing Atlanta Center
Tue 07:29:51 AM 31.8747 -82.3442 North 444 511 39,000  Level Atlanta Center
Tue 07:30:51 AM 32.0019 -82.3294 North 444 511 39,000  Level Atlanta Center
Tue 07:31:51 AM 32.1289 -82.3122 North 451 519 39,000  Level Atlanta Center
Tue 07:32:51 AM 32.2664 -82.2972 North 451 519 39,000  Level Atlanta Center
Tue 07:33:51 AM 32.3936 -82.2800 North 451 519 39,000  Level Atlanta Center
Tue 07:34:51 AM 32.5164 -82.2628 North 451 519 39,000  Level Atlanta Center
Tue 07:35:51 AM 32.6394 -82.2481 North 445 512 39,000  Level Atlanta Center
Tue 07:36:51 AM 32.7644 -82.2306 North 445 512 39,000  Level Atlanta Center
Tue 07:37:51 AM 32.8894 -82.2131 North 445 512 39,000  Level Atlanta Center
Tue 07:38:51 AM 33.0144 -82.1983 North 445 512 39,000  Level Atlanta Center
Tue 07:39:51 AM 33.1394 -82.1806 North 450 518 39,000  Level Atlanta Center
Tue 07:40:51 AM 33.2622 -82.1656 North 445 512 39,000  Level Atlanta Center
Tue 07:41:51 AM 33.3872 -82.1481 North 445 512 39,000  Level Atlanta Center
Tue 07:42:51 AM 33.5122 -82.1328 North 445 512 39,000  Level Atlanta Center
Tue 07:43:51 AM 33.6247 -82.1178 North 445 512 39,000  Level Atlanta Center
Tue 07:44:51 AM 33.7475 -82.0975 North 445 512 39,000  Level Atlanta Center
Tue 07:45:51 AM 33.8706 -82.0847 North 445 512 39,000  Level Atlanta Center
Tue 07:46:51 AM 33.9975 -82.0669 North 445 512 39,000  Level Atlanta Center
Tue 07:52:49 AM 34.7418 -81.9671 North 440 506 39,000  Level FlightAware ADS-B (KDZJ)
Tue 07:53:26 AM 34.8135 -81.9573 North 435 501 39,000  Level FlightAware ADS-B (KDZJ)
Tue 07:54:02 AM 34.8873 -81.9472 North 435 501 39,000  Level FlightAware ADS-B (KDZJ)
Tue 07:55:09 AM 35.0233 -81.9281 North 434 499 39,000  Level FlightAware ADS-B (KDZJ)
Tue 07:57:10 AM 35.2680 -81.8610 13° North 434 499 39,000  Level FlightAware ADS-B (KDZJ)
Tue 07:57:51 AM 35.3356 -81.8442 13° North 445 512 39,000  Level Atlanta Center
Tue 07:58:51 AM 35.4581 -81.8078 14° North 450 518 39,000  Level Atlanta Center
Tue 07:59:51 AM 35.5786 -81.7764 12° North 450 518 39,000  Level Atlanta Center
Tue 08:00:51 AM 35.7008 -81.7422 13° North 450 518 39,000  Level Atlanta Center
Tue 08:01:51 AM 35.8214 -81.7083 13° North 450 518 39,000  Level Atlanta Center
Tue 08:02:51 AM 35.9458 -81.6714 14° North 450 518 39,000  Level Atlanta Center
Tue 08:03:51 AM 36.0703 -81.6342 14° North 450 518 39,000  Level Atlanta Center
Tue 08:04:51 AM 36.1925 -81.5997 13° North 450 518 39,000  Level Atlanta Center
Tue 08:05:51 AM 36.3128 -81.5678 12° North 450 518 39,000  Level Atlanta Center
Tue 08:06:51 AM 36.4392 -81.5253 15° North 450 518 39,000  Level Atlanta Center
Tue 08:07:51 AM 36.5636 -81.4903 13° North 450 518 39,000  Level Atlanta Center
Tue 08:08:51 AM 36.6878 -81.4500 15° North 450 518 39,000  Level Atlanta Center
Tue 08:10:26 AM 36.8778 -81.3947 13° North 458 527 39,000  Level Indianapolis Center
Tue 08:11:28 AM 37.0258 -81.3500 14° North 461 531 39,000  Level Indianapolis Center
Tue 08:12:29 AM 37.1444 -81.3147 13° North 466 536 39,000 49 Level Indianapolis Center
Tue 08:13:31 AM 37.2706 -81.2775 13° North 466 536 39,100  Climbing Indianapolis Center
Tue 08:14:33 AM 37.3944 -81.2403 13° North 464 534 39,000 -49 Descending Indianapolis Center
Tue 08:15:34 AM 37.5358 -81.1964 14° North 453 521 39,000  Level Indianapolis Center
Tue 08:16:36 AM 37.6572 -81.1611 13° North 453 521 39,000  Level Indianapolis Center
Tue 08:17:38 AM 37.7747 -81.1253 14° North 448 516 39,000  Level Indianapolis Center
Tue 08:18:40 AM 37.8881 -81.0908 13° North 448 516 39,000  Level Indianapolis Center
Tue 08:19:41 AM 38.0328 -81.0500 13° North 447 514 39,000  Level Indianapolis Center
Tue 08:20:43 AM 38.1553 -81.0169 12° North 447 514 39,000  Level Indianapolis Center
Tue 08:21:45 AM 38.2772 -80.9794 14° North 447 514 39,000  Level Indianapolis Center
Tue 08:22:46 AM 38.3992 -80.9447 13° North 448 516 39,000  Level Indianapolis Center
Tue 08:23:48 AM 38.5222 -80.9083 13° North 451 519 39,000  Level Indianapolis Center
Tue 08:24:50 AM 38.6456 -80.8722 13° North 453 521 39,000  Level Indianapolis Center
Tue 08:25:52 AM 38.7936 -80.8289 13° North 455 524 39,000  Level Indianapolis Center
Tue 08:26:53 AM 38.9189 -80.7908 13° North 460 529 39,000  Level Indianapolis Center
Tue 08:27:55 AM 39.0450 -80.7539 13° North 462 532 39,000  Level Indianapolis Center
Tue 08:28:57 AM 39.1725 -80.7144 13° North 468 539 39,000  Level Indianapolis Center
Tue 08:29:59 AM 39.2992 -80.6772 13° North 468 539 39,000  Level Indianapolis Center
Tue 08:31:00 AM 39.4236 -80.6397 13° North 464 534 39,000 -1,073 Level Indianapolis Center
Tue 08:32:02 AM 39.5497 -80.6047 12° North 463 533 36,800 -933 Descending Indianapolis Center
Tue 08:37:26 AM 40.2451 -80.3078 12° North 467 537 33,000 -644 Descending FlightAware ADS-B
Tue 08:37:56 AM 40.3080 -80.2800 19° North 468 539 33,000  Level FlightAware ADS-B
Tue 08:38:28 AM 40.3672 -80.2489 22° Northeast 483 556 33,000  Level FlightAware ADS-B
Tue 08:39:06 AM 40.4447 -80.1970 27° Northeast 482 555 33,000  Level FlightAware ADS-B
Tue 08:39:38 AM 40.5111 -80.1525 27° Northeast 481 554 33,000 -1,114 Level FlightAware ADS-B
Tue 08:40:16 AM 40.5858 -80.1026 27° Northeast 478 550 31,700 -1,739 Descending FlightAware ADS-B
Tue 08:40:47 AM 40.6480 -80.0594 28° Northeast 479 551 31,000 -636 Descending FlightAware ADS-B
Tue 08:41:22 AM 40.7167 -80.0120 28° Northeast 478 550 31,000 -1,133 Level FlightAware ADS-B
Tue 08:42:17 AM 40.8219 -79.9387 28° Northeast 468 539 29,300 -1,931 Descending FlightAware ADS-B
Tue 08:42:49 AM 40.8704 -79.9055 27° Northeast 452 520 28,200 -609 Descending FlightAware ADS-B
Tue 08:44:25 AM 41.0564 -79.7784 27° Northeast 451 519 28,000 -96 Descending FlightAware ADS-B (CYYZ)
Tue 08:44:54 AM 41.1133 -79.7394 27° Northeast 452 520 28,000  Level FlightAware ADS-B (CYYZ)
Tue 08:44:59 AM 41.1133 -79.7394 360° North 451 519 28,000  Level FlightAware ADS-B (EPLB / LUZ)
Tue 08:45:25 AM 41.1689 -79.7017 27° Northeast 451 519 28,000  Level FlightAware ADS-B (CYYZ)
Tue 08:45:37 AM 41.1649 -79.7044 207° Southwest 451 519 28,000  Level FlightAware ADS-B (EPLB / LUZ)
Tue 08:45:54 AM 41.2249 -79.6638 27° Northeast 452 520 28,000  Level FlightAware ADS-B (CYYZ)
Tue 08:46:17 AM 41.2617 -79.6390 27° Northeast 451 519 28,000  Level FlightAware ADS-B (EPLB / LUZ)
Tue 08:46:24 AM 41.2800 -79.6266 27° Northeast 452 520 28,000  Level FlightAware ADS-B (CYYZ)
Tue 08:46:54 AM 41.3348 -79.5896 27° Northeast 452 520 28,000  Level FlightAware ADS-B (CYYZ)
Tue 08:46:56 AM 41.3042 -79.6102 207° Southwest 451 519 28,000  Level FlightAware ADS-B (EPLB / LUZ)
Tue 08:47:25 AM 41.3931 -79.5504 27° Northeast 451 519 28,000  Level FlightAware ADS-B (CYYZ)
Tue 08:47:55 AM 41.4340 -79.5230 27° Northeast 452 520 28,000  Level FlightAware ADS-B (CYYZ)
Tue 08:48:24 AM 41.5047 -79.4760 26° Northeast 452 520 28,000  Level FlightAware ADS-B (CYYZ)
Tue 08:48:54 AM 41.5606 -79.4391 26° Northeast 453 521 28,000  Level FlightAware ADS-B (CYYZ)
Tue 08:49:24 AM 41.6163 -79.4023 26° Northeast 452 520 28,000  Level FlightAware ADS-B (CYYZ)
Tue 08:49:55 AM 41.6728 -79.3661 26° Northeast 445 512 28,000 -360 Level FlightAware ADS-B (CYYZ)
Tue 08:50:14 AM 41.7115 -79.3518 15° North 425 489 27,700 -857 Descending FlightAware ADS-B (CYYZ)
Tue 08:50:44 AM 41.7684 -79.3364 11° North 423 487 27,300 -900 Descending FlightAware ADS-B (CYYZ)
Tue 08:51:14 AM 41.8265 -79.3199 12° North 418 481 26,800 -984 Descending FlightAware ADS-B (CYYZ)
Tue 08:51:45 AM 41.8794 -79.3047 12° North 413 475 26,300 -1,279 Descending FlightAware ADS-B (CYYZ)
Tue 08:52:15 AM 41.9339 -79.2890 12° North 410 472 25,500 -2,125 Descending FlightAware ADS-B (CYYZ)
Tue 08:52:33 AM 41.9725 -79.2780 12° North 404 465 24,600 -2,000 Descending FlightAware ADS-B (EPLB / LUZ)
Tue 08:52:45 AM 41.9935 -79.2720 12° North 404 465 24,500 -1,756 Descending FlightAware ADS-B (CYYZ)
Tue 08:53:14 AM 42.0481 -79.2563 12° North 398 458 23,400 -2,229 Descending FlightAware ADS-B (CYYZ)
Tue 08:53:20 AM 42.0564 -79.2540 12° North 396 456 23,200 -2,000 Descending FlightAware ADS-B (EPLB / LUZ)
Tue 08:53:44 AM 42.1006 -79.2414 12° North 393 452 22,400 -2,154 Descending FlightAware ADS-B (CYYZ)
Tue 08:53:59 AM 42.1277 -79.2337 12° North 393 452 21,800 -2,323 Descending FlightAware ADS-B (EPLB / LUZ)
Tue 08:54:15 AM 42.1527 -79.2265 12° North 392 451 21,200 -2,000 Descending FlightAware ADS-B (CYYZ)
Tue 08:54:44 AM 42.2068 -79.2109 12° North 387 445 20,300 -2,057 Descending FlightAware ADS-B (CYYZ)
Tue 08:54:50 AM 42.2050 -79.2114 191° South 383 441 20,000 -1,935 Descending FlightAware ADS-B (EPLB / LUZ)
Tue 08:55:15 AM 42.2602 -79.1956 12° North 379 436 19,300 -1,902 Descending FlightAware ADS-B (CYYZ)
Tue 08:55:31 AM 42.2743 -79.1915 12° North 375 432 18,700 -1,862 Descending FlightAware ADS-B (EPLB / LUZ)
Tue 08:55:44 AM 42.3095 -79.1811 12° North 373 429 18,400 -1,600 Descending FlightAware ADS-B (CYYZ)
Tue 08:56:01 AM 42.3381 -79.1727 12° North 369 425 17,900 -2,000 Descending FlightAware ADS-B (EPLB / LUZ)
Tue 08:56:14 AM 42.3606 -79.1661 12° North 367 422 17,400 -1,846 Descending FlightAware ADS-B (CYYZ)
Tue 08:56:40 AM 42.3955 -79.1559 12° North 361 415 16,700 -1,800 Descending FlightAware ADS-B (EPLB / LUZ)
Tue 08:56:44 AM 42.4102 -79.1517 12° North 360 414 16,500 -2,129 Descending FlightAware ADS-B (CYYZ)
Tue 08:57:11 AM 42.4534 -79.1396 12° North 352 405 15,600 -1,935 Descending FlightAware ADS-B (EPLB / LUZ)
Tue 08:57:15 AM 42.4581 -79.1382 12° North 352 405 15,500 -1,455 Descending FlightAware ADS-B (CYYZ)
Tue 08:57:44 AM 42.5051 -79.1247 12° North 338 389 14,800 -1,729 Descending FlightAware ADS-B (CYYZ)
Tue 08:58:14 AM 42.5494 -79.1122 12° North 319 367 13,800 -2,148 Descending FlightAware ADS-B (CYYZ)
Tue 08:59:05 AM 42.6200 -79.0933 11° North 296 341 11,900 -2,100 Descending FlightAware ADS-B (CYYZ)
Tue 08:59:34 AM 42.6588 -79.0822 12° North 277 319 11,000 -2,100 Descending FlightAware ADS-B (CYYZ)
Tue 09:00:05 AM 42.6955 -79.0715 12° North 270 311 9,800 -2,348 Descending FlightAware ADS-B (CYYZ)
Tue 09:00:20 AM 42.7135 -79.0666 11° North 267 307 9,200 -2,276 Descending FlightAware ADS-B (CYYZ)
Tue 09:00:34 AM 42.7319 -79.0619 11° North 268 308 8,700 -1,655 Descending FlightAware ADS-B (CYYZ)
Tue 09:00:49 AM 42.7500 -79.0574 10° North 262 302 8,400 -1,548 Descending FlightAware ADS-B (CYYZ)
Tue 09:01:05 AM 42.7673 -79.0530 11° North 260 299 7,900 -1,800 Descending FlightAware ADS-B (CYYZ)
Tue 09:01:19 AM 42.7851 -79.0485 11° North 259 298 7,500 -1,655 Descending FlightAware ADS-B (CYYZ)
Tue 09:01:34 AM 42.8032 -79.0440 10° North 257 296 7,100 -1,029 Descending FlightAware ADS-B (CYYZ)
Tue 09:01:54 AM 42.8264 -79.0385 10° North 254 292 6,900 -462 Descending FlightAware ADS-B (CYYZ)
Tue 09:02:00 AM 42.8324 -79.0362 15° North 258 297 6,900 -400 Level FlightAware ADS-B (CYYZ)
Tue 09:02:09 AM 42.8423 -79.0290 28° Northeast 266 306 6,800 -429 Descending FlightAware ADS-B (CYYZ)
Tue 09:02:14 AM 42.8476 -79.0229 40° Northeast 267 307 6,800 -600 Level FlightAware ADS-B (CYYZ)
Tue 09:02:19 AM 42.8513 -79.0182 43° Northeast 265 305 6,700 -1,200 Descending FlightAware ADS-B (CYYZ)
Tue 09:02:34 AM 42.8650 -78.9996 45° Northeast 263 303 6,400 -1,600 Descending FlightAware ADS-B (CYYZ)
Tue 09:02:49 AM 42.8772 -78.9830 45° Northeast 263 303 5,900 -1,548 Descending FlightAware ADS-B (CYYZ)
Tue 09:03:05 AM 42.8908 -78.9646 45° Northeast 255 293 5,600 -1,000 Descending FlightAware ADS-B (CYYZ)
Tue 09:03:19 AM 42.9018 -78.9495 45° Northeast 241 277 5,400 -1,043 Descending FlightAware ADS-B (CYYZ)
Tue 09:03:28 AM 42.9087 -78.9400 45° Northeast 237 273 5,200 -1,895 Descending FlightAware ADS-B (EPLB / LUZ)
Tue 09:03:38 AM 42.9174 -78.9283 45° Northeast 237 273 4,800 -1,615 Descending FlightAware ADS-B (CYYZ)
Tue 09:03:54 AM 42.9276 -78.9151 44° Northeast 238 274 4,500 -1,161 Descending FlightAware ADS-B (CYYZ)
Tue 09:04:09 AM 42.9400 -78.8988 44° Northeast 233 268 4,200 -1,375 Descending FlightAware ADS-B (CYYZ)
Tue 09:04:42 AM 42.9660 -78.8644 44° Northeast 221 254 3,400 -900 Descending FlightAware ADS-B (EPLB / LUZ)
Tue 09:05:09 AM 42.9873 -78.8474 30° Northeast 203 234 3,300 -429 Descending FlightAware ADS-B (CYYZ)
Tue 09:05:24 AM 43.0015 -78.8408 19° North 189 217 3,100 -774 Descending FlightAware ADS-B (CYYZ)
Tue 09:05:40 AM 43.0155 -78.8363 13° North 178 205 2,900 -453 Descending FlightAware ADS-B (CYYZ)
Tue 09:06:17 AM 43.0500 -78.8333 13° North 173 199 2,700 -408 Descending Buffalo TRACON
Tue 09:07:23 AM 43.1000 -78.8167 14° North 176 203 2,200 -571 Descending Buffalo TRACON
Tue 09:08:23 AM 43.1167 -78.8667 295° West 113 130 1,500 -650 Descending Buffalo TRACON
Tue 09:09:23 AM 43.1167 -78.9167 270° West 117 135 900 -600 Descending Buffalo TRACON
Tue 09:11:00 AM 43.1000 -78.9333 270° West  Level FlightAware Approximate

Login

Don't have an account? Register now (free) for customized features, flight alerts, and more!